Time;durP1;ratioP1;P1;durP2;ratioP2;P2;SDS_P1;SDS_P2;PMS_P1;PMS_P2;Temp;Humidity;BMP_temperature;BMP_pressure;BME280_temperature;BME280_humidity;BME280_pressure;Samples;Min_cycle;Max_cycle;Signal;HPM_P1;HPM_P2
2022/08/30 00:02:59;;;;;;;3.92;2.92;;;15.50;99.90;;;;;;5052166;28;20048;-62
2022/08/30 00:05:25;;;;;;;6.45;3.47;;;15.50;99.90;;;;;;5048187;28;20071;-62
2022/08/30 00:07:51;;;;;;;5.13;3.10;;;15.50;99.90;;;;;;5065726;28;20489;-62
2022/08/30 00:10:16;;;;;;;6.07;3.58;;;15.50;99.90;;;;;;5035326;28;20051;-61
2022/08/30 00:12:42;;;;;;;4.45;3.50;;;15.50;99.90;;;;;;5043629;28;20075;-62
2022/08/30 00:15:09;;;;;;;7.30;3.22;;;15.40;99.90;;;;;;5055353;28;20045;-62
2022/08/30 00:17:35;;;;;;;7.07;3.75;;;15.50;99.90;;;;;;5058718;28;20037;-62
2022/08/30 00:20:03;;;;;;;6.28;3.78;;;15.40;99.90;;;;;;5052342;28;20059;-62
2022/08/30 00:22:29;;;;;;;5.20;3.53;;;15.40;99.90;;;;;;5056273;28;20040;-61
2022/08/30 00:24:55;;;;;;;4.82;3.50;;;15.40;99.90;;;;;;5053908;28;20040;-62
2022/08/30 00:27:20;;;;;;;7.18;3.88;;;15.50;99.90;;;;;;5054368;28;20036;-62
2022/08/30 00:29:46;;;;;;;8.52;4.00;;;15.50;99.90;;;;;;5056314;28;20101;-62
2022/08/30 00:32:12;;;;;;;6.38;3.90;;;15.50;99.90;;;;;;5061960;28;20072;-62
2022/08/30 00:34:37;;;;;;;7.03;3.72;;;15.50;99.90;;;;;;5057081;28;20065;-62
2022/08/30 00:37:03;;;;;;;6.93;4.47;;;15.50;99.90;;;;;;5061848;28;20047;-63
2022/08/30 00:39:28;;;;;;;7.95;4.28;;;15.40;99.90;;;;;;5046609;28;20071;-62
2022/08/30 00:41:54;;;;;;;4.95;3.95;;;15.40;99.90;;;;;;5064162;28;20029;-62
2022/08/30 00:44:19;;;;;;;5.90;4.65;;;15.40;99.90;;;;;;5060535;28;20040;-62
2022/08/30 00:46:45;;;;;;;6.38;4.32;;;15.40;99.90;;;;;;5061325;28;20514;-62
2022/08/30 00:49:11;;;;;;;5.97;4.68;;;15.40;99.90;;;;;;5070733;28;20067;-62
2022/08/30 00:51:39;;;;;;;6.78;4.53;;;15.30;99.90;;;;;;5064189;28;20044;-62
2022/08/30 00:54:05;;;;;;;5.95;4.20;;;15.30;99.90;;;;;;5059436;28;20033;-62
2022/08/30 00:56:32;;;;;;;5.85;4.00;;;15.30;99.90;;;;;;5058326;28;20059;-62
2022/08/30 00:59:00;;;;;;;7.35;4.70;;;15.30;99.90;;;;;;5055378;28;20529;-62
2022/08/30 01:01:27;;;;;;;9.25;4.85;;;15.30;99.90;;;;;;5068113;28;20496;-62
2022/08/30 01:03:53;;;;;;;7.05;4.22;;;15.30;99.90;;;;;;5061368;28;20086;-61
2022/08/30 01:06:19;;;;;;;9.57;4.90;;;15.30;99.90;;;;;;5063875;28;20044;-62
2022/08/30 01:08:46;;;;;;;6.57;4.90;;;15.30;99.90;;;;;;5068030;28;20041;-62
2022/08/30 01:11:18;;;;;;;8.70;6.07;;;15.20;99.90;;;;;;5062104;28;20492;-62
2022/08/30 01:13:45;;;;;;;5.80;5.00;;;15.20;99.90;;;;;;5062267;28;20071;-62
2022/08/30 01:16:11;;;;;;;8.48;5.38;;;15.20;99.90;;;;;;5063471;28;20049;-62
2022/08/30 01:18:38;;;;;;;9.05;5.18;;;15.20;99.90;;;;;;5069757;28;20041;-61
2022/08/30 01:21:07;;;;;;;7.35;4.72;;;15.20;99.90;;;;;;5063073;28;20032;-62
2022/08/30 01:23:34;;;;;;;8.73;4.90;;;15.20;99.90;;;;;;5050498;28;20120;-62
2022/08/30 01:26:02;;;;;;;6.70;4.88;;;15.10;99.90;;;;;;5057015;28;20047;-62
2022/08/30 01:28:29;;;;;;;8.88;4.65;;;15.10;99.90;;;;;;5067959;28;20037;-62
2022/08/30 01:30:55;;;;;;;8.40;5.70;;;15.10;99.90;;;;;;5061074;28;20039;-61
2022/08/30 01:33:22;;;;;;;8.38;4.65;;;15.00;99.90;;;;;;5063960;28;20519;-62
2022/08/30 01:35:56;;;;;;;8.00;4.57;;;15.00;99.90;;;;;;5061939;28;20044;-62
2022/08/30 01:38:29;;;;;;;7.63;5.22;;;14.90;99.90;;;;;;5061562;28;20036;-62
2022/08/30 01:41:06;;;;;;;5.95;5.15;;;14.90;99.90;;;;;;5058094;28;20025;-62
2022/08/30 01:43:31;;;;;;;7.75;5.18;;;14.90;99.90;;;;;;5064551;28;20047;-62
2022/08/30 01:45:57;;;;;;;5.72;4.97;;;14.80;99.90;;;;;;5058752;28;20060;-62
2022/08/30 01:48:23;;;;;;;8.68;5.18;;;14.80;99.90;;;;;;5067321;28;20048;-62
2022/08/30 01:50:48;;;;;;;8.88;6.00;;;14.70;99.90;;;;;;5032365;28;20456;-62
2022/08/30 01:53:14;;;;;;;9.43;5.70;;;14.70;99.90;;;;;;5065968;28;20032;-62
2022/08/30 01:55:41;;;;;;;7.53;5.72;;;14.70;99.90;;;;;;5055830;28;20033;-62
2022/08/30 01:58:06;;;;;;;8.30;5.93;;;14.70;99.90;;;;;;5065511;28;20039;-62
2022/08/30 02:00:32;;;;;;;9.63;5.90;;;14.60;99.90;;;;;;5051723;28;20397;-62
2022/08/30 02:02:57;;;;;;;10.98;5.85;;;14.50;99.90;;;;;;5065503;28;20037;-62
2022/08/30 02:05:23;;;;;;;9.70;6.10;;;14.50;99.90;;;;;;5056849;28;20037;-62
2022/08/30 02:07:49;;;;;;;7.43;5.35;;;14.50;99.90;;;;;;5055936;28;20033;-62
2022/08/30 02:10:15;;;;;;;11.40;6.45;;;14.50;99.90;;;;;;5054133;28;20387;-62
2022/08/30 02:12:40;;;;;;;8.77;5.53;;;14.40;99.90;;;;;;5052659;28;20126;-62
2022/08/30 02:15:07;;;;;;;6.90;5.40;;;14.40;99.90;;;;;;5044498;28;20045;-62
2022/08/30 02:17:33;;;;;;;8.25;6.00;;;14.40;99.90;;;;;;5051375;28;20491;-62
2022/08/30 02:19:58;;;;;;;8.45;5.78;;;14.30;99.90;;;;;;5065853;28;20044;-62
2022/08/30 02:22:24;;;;;;;8.25;5.45;;;14.30;99.90;;;;;;5063638;28;20034;-62
2022/08/30 02:24:49;;;;;;;8.85;5.82;;;14.30;99.90;;;;;;5066888;28;20033;-62
2022/08/30 02:27:15;;;;;;;8.13;6.32;;;14.30;99.90;;;;;;5056382;28;20029;-62
2022/08/30 02:29:41;;;;;;;6.38;5.40;;;14.30;99.90;;;;;;5055292;28;20037;-62
2022/08/30 02:32:06;;;;;;;9.02;5.78;;;14.30;99.90;;;;;;5054973;28;20037;-62
2022/08/30 02:34:32;;;;;;;8.75;5.82;;;14.30;99.90;;;;;;5052728;28;20040;-62
2022/08/30 02:36:57;;;;;;;8.73;6.40;;;14.30;99.90;;;;;;5047664;28;20668;-62
2022/08/30 02:39:23;;;;;;;9.07;6.15;;;14.20;99.90;;;;;;5054156;28;20044;-62
2022/08/30 02:41:49;;;;;;;8.52;6.13;;;14.20;99.90;;;;;;5054895;28;20515;-61
2022/08/30 02:44:14;;;;;;;8.88;6.15;;;14.20;99.90;;;;;;5060802;28;20499;-61
2022/08/30 02:46:40;;;;;;;8.80;6.70;;;14.20;99.90;;;;;;5051446;28;20049;-62
2022/08/30 02:49:07;;;;;;;8.32;6.07;;;14.20;99.90;;;;;;5045915;28;20132;-62
2022/08/30 02:51:33;;;;;;;9.55;6.35;;;14.10;99.90;;;;;;5050205;28;20044;-62
2022/08/30 02:53:59;;;;;;;8.98;6.18;;;14.10;99.90;;;;;;5059728;28;20046;-62
2022/08/30 02:56:27;;;;;;;8.85;7.50;;;14.10;99.90;;;;;;5042423;28;20036;-62
2022/08/30 02:58:53;;;;;;;9.02;6.07;;;14.10;99.90;;;;;;5054044;28;20037;-62
2022/08/30 03:01:19;;;;;;;6.43;5.75;;;14.00;99.90;;;;;;5061595;28;20075;-62
2022/08/30 03:03:45;;;;;;;12.98;6.82;;;14.00;99.90;;;;;;5061437;28;20116;-62
2022/08/30 03:06:12;;;;;;;10.63;7.07;;;13.90;99.90;;;;;;5053979;28;20121;-62
2022/08/30 03:08:38;;;;;;;9.13;6.53;;;13.90;99.90;;;;;;5054659;28;20135;-62
2022/08/30 03:11:04;;;;;;;9.45;6.65;;;13.80;99.90;;;;;;5059434;28;20139;-62
2022/08/30 03:13:30;;;;;;;10.38;7.10;;;13.70;99.90;;;;;;5061775;28;20051;-62
2022/08/30 03:15:56;;;;;;;10.70;6.55;;;13.70;99.90;;;;;;5056645;28;20036;-61
2022/08/30 03:18:22;;;;;;;10.63;7.82;;;13.60;99.90;;;;;;5059165;28;20039;-61
2022/08/30 03:20:48;;;;;;;12.23;7.20;;;13.60;99.90;;;;;;5061913;28;20033;-61
2022/08/30 03:23:14;;;;;;;10.88;7.88;;;13.50;99.90;;;;;;5064437;28;20040;-62
2022/08/30 03:25:40;;;;;;;9.18;6.95;;;13.40;99.90;;;;;;5054899;28;20058;-61
2022/08/30 03:28:06;;;;;;;11.20;7.00;;;13.40;99.90;;;;;;5060576;28;20118;-62
2022/08/30 03:30:32;;;;;;;10.35;6.60;;;13.30;99.90;;;;;;5059470;28;20036;-62
2022/08/30 03:32:58;;;;;;;10.30;6.95;;;13.30;99.90;;;;;;5051139;28;20036;-62
2022/08/30 03:35:24;;;;;;;8.93;6.95;;;13.20;99.90;;;;;;5055149;28;20092;-62
2022/08/30 03:37:49;;;;;;;9.20;7.75;;;13.20;99.90;;;;;;5052242;28;20040;-62
2022/08/30 03:40:17;;;;;;;10.88;7.05;;;13.20;99.90;;;;;;5060593;28;20040;-62
2022/08/30 03:42:44;;;;;;;10.65;7.03;;;13.10;99.90;;;;;;5060968;28;20113;-62
2022/08/30 03:45:10;;;;;;;14.10;7.78;;;13.10;99.90;;;;;;5032918;28;20052;-62
2022/08/30 03:47:36;;;;;;;11.70;6.60;;;13.10;99.90;;;;;;5062134;28;20137;-62
2022/08/30 03:50:03;;;;;;;8.13;5.57;;;13.10;99.90;;;;;;5060503;28;20068;-61
2022/08/30 03:52:29;;;;;;;8.73;6.28;;;13.00;99.90;;;;;;5052986;28;20041;-62
2022/08/30 03:54:54;;;;;;;9.02;6.40;;;12.90;99.90;;;;;;5063049;28;20077;-62
2022/08/30 03:57:20;;;;;;;8.52;6.68;;;12.90;99.90;;;;;;5060542;28;20069;-62
2022/08/30 03:59:45;;;;;;;8.93;6.68;;;12.90;99.90;;;;;;5049915;28;20135;-61
2022/08/30 04:02:11;;;;;;;8.98;7.22;;;12.80;99.90;;;;;;5050024;28;20047;-62
2022/08/30 04:04:36;;;;;;;9.57;6.97;;;12.80;99.90;;;;;;5069169;28;20138;-61
2022/08/30 04:07:02;;;;;;;9.48;6.35;;;12.80;99.90;;;;;;5051580;28;20990;-62
2022/08/30 04:09:28;;;;;;;8.30;6.45;;;12.70;99.90;;;;;;5035762;28;20101;-61
2022/08/30 04:11:53;;;;;;;10.38;6.55;;;12.70;99.90;;;;;;5068874;28;20036;-61
2022/08/30 04:14:19;;;;;;;9.55;6.95;;;12.70;99.90;;;;;;5061656;28;20037;-62
2022/08/30 04:16:44;;;;;;;9.48;6.50;;;12.60;99.90;;;;;;5065016;28;20507;-62
2022/08/30 04:19:10;;;;;;;10.85;7.78;;;12.60;99.90;;;;;;5066417;28;20033;-62
2022/08/30 04:21:36;;;;;;;10.20;7.05;;;12.50;99.90;;;;;;5067100;28;20048;-62
2022/08/30 04:24:02;;;;;;;8.88;6.72;;;12.50;99.90;;;;;;5072409;28;20035;-62
2022/08/30 04:26:28;;;;;;;8.27;6.70;;;12.50;99.90;;;;;;5064762;28;20059;-62
2022/08/30 04:28:54;;;;;;;8.02;6.30;;;12.40;99.90;;;;;;5065855;28;20040;-62
2022/08/30 04:31:20;;;;;;;7.28;6.40;;;12.40;99.90;;;;;;5060348;28;20093;-62
2022/08/30 04:33:46;;;;;;;7.53;6.20;;;12.40;99.90;;;;;;5061330;28;20036;-62
2022/08/30 04:36:13;;;;;;;9.38;5.72;;;12.40;99.90;;;;;;5055900;28;20586;-62
2022/08/30 04:38:40;;;;;;;7.25;6.30;;;12.40;99.90;;;;;;5066715;28;20037;-61
2022/08/30 04:41:15;;;;;;;10.80;5.85;;;12.30;99.90;;;;;;5058402;28;20036;-62
2022/08/30 04:43:44;;;;;;;8.57;6.30;;;12.30;99.90;;;;;;5067179;28;20040;-62
2022/08/30 04:46:12;;;;;;;8.02;6.82;;;12.20;99.90;;;;;;5065626;28;20625;-62
2022/08/30 04:48:38;;;;;;;11.10;7.53;;;12.20;99.90;;;;;;5067685;28;20056;-61
2022/08/30 04:51:06;;;;;;;8.93;7.13;;;12.20;99.90;;;;;;5049624;28;20404;-62
2022/08/30 04:53:32;;;;;;;11.13;8.27;;;12.10;99.90;;;;;;5066423;28;20518;-62
2022/08/30 04:55:58;;;;;;;11.18;8.38;;;12.10;99.90;;;;;;5064301;28;20048;-62
2022/08/30 04:58:24;;;;;;;10.68;7.95;;;12.10;99.90;;;;;;5065990;28;20037;-61
2022/08/30 05:00:49;;;;;;;10.93;8.13;;;12.00;99.90;;;;;;5054064;28;21837;-61
2022/08/30 05:03:16;;;;;;;10.25;7.82;;;12.00;99.90;;;;;;5059304;28;20036;-62
2022/08/30 05:05:49;;;;;;;11.90;7.88;;;12.00;99.90;;;;;;5057702;28;20051;-61
2022/08/30 05:08:18;;;;;;;9.95;7.63;;;11.90;99.90;;;;;;5059134;28;20036;-62
2022/08/30 05:10:47;;;;;;;11.80;8.35;;;11.90;99.90;;;;;;5060269;28;20041;-61
2022/08/30 05:13:13;;;;;;;12.70;8.60;;;11.90;99.90;;;;;;5057758;28;20412;-62
2022/08/30 05:15:39;;;;;;;10.00;7.75;;;11.90;99.90;;;;;;5054098;28;20119;-61
2022/08/30 05:18:06;;;;;;;9.48;7.63;;;11.90;99.90;;;;;;5047697;28;20032;-61
2022/08/30 05:20:33;;;;;;;13.52;7.93;;;11.80;99.90;;;;;;5065064;28;20077;-61
2022/08/30 05:23:00;;;;;;;10.55;8.05;;;11.80;99.90;;;;;;5058961;28;20463;-61
2022/08/30 05:25:31;;;;;;;9.73;7.93;;;11.80;99.90;;;;;;5066935;28;20075;-61
2022/08/30 05:27:57;;;;;;;10.20;6.93;;;11.80;99.90;;;;;;5067640;28;20068;-61
2022/08/30 05:30:25;;;;;;;6.65;5.85;;;11.90;99.90;;;;;;5055284;28;20036;-61
2022/08/30 05:32:51;;;;;;;7.68;6.05;;;11.90;99.90;;;;;;5064851;28;20041;-61
2022/08/30 05:35:18;;;;;;;8.73;6.60;;;11.90;99.90;;;;;;5061770;28;20044;-61
2022/08/30 05:37:43;;;;;;;10.45;6.22;;;11.90;99.90;;;;;;5061767;28;20032;-62
2022/08/30 05:40:10;;;;;;;11.23;7.15;;;12.00;99.90;;;;;;5060745;28;20495;-61
2022/08/30 05:42:37;;;;;;;13.52;8.13;;;12.10;99.90;;;;;;5054017;28;20037;-61
2022/08/30 05:45:04;;;;;;;16.92;8.35;;;12.10;99.90;;;;;;5060331;28;20029;-61
2022/08/30 05:47:30;;;;;;;11.30;7.93;;;12.20;99.90;;;;;;5068620;28;20045;-61
2022/08/30 05:49:55;;;;;;;11.23;7.43;;;12.30;99.90;;;;;;5051758;28;20048;-61
2022/08/30 05:52:21;;;;;;;9.40;7.93;;;12.40;99.90;;;;;;5061298;28;20056;-61
2022/08/30 05:54:57;;;;;;;11.48;7.97;;;12.40;99.90;;;;;;5065449;28;20119;-61
2022/08/30 05:57:24;;;;;;;11.95;7.07;;;12.50;99.90;;;;;;5068113;28;20469;-62
2022/08/30 05:59:50;;;;;;;10.55;8.07;;;12.50;99.90;;;;;;5062834;28;20041;-61
2022/08/30 06:02:15;;;;;;;9.75;6.60;;;12.60;99.90;;;;;;5059424;28;20507;-61
2022/08/30 06:04:41;;;;;;;8.75;7.22;;;12.70;99.90;;;;;;5061949;28;20431;-62
2022/08/30 06:07:07;;;;;;;12.20;7.40;;;12.80;99.90;;;;;;5059151;28;20048;-62
2022/08/30 06:09:32;;;;;;;13.00;7.53;;;12.90;99.90;;;;;;5058109;28;20064;-62
2022/08/30 06:11:58;;;;;;;9.63;7.45;;;13.00;99.90;;;;;;5062942;28;20040;-61
2022/08/30 06:14:24;;;;;;;11.15;7.20;;;13.10;99.90;;;;;;5058436;28;20040;-62
2022/08/30 06:16:50;;;;;;;10.45;7.40;;;13.20;99.90;;;;;;5064633;28;20043;-62
2022/08/30 06:19:17;;;;;;;10.32;7.15;;;13.30;99.90;;;;;;5059082;28;20396;-61
2022/08/30 06:21:46;;;;;;;9.40;7.38;;;13.40;99.90;;;;;;5055980;28;20464;-62
2022/08/30 06:24:12;;;;;;;10.50;6.72;;;13.50;99.90;;;;;;5048299;28;20085;-62
2022/08/30 06:26:42;;;;;;;8.60;7.18;;;13.70;99.90;;;;;;5050731;28;20036;-62
2022/08/30 06:29:09;;;;;;;12.15;7.25;;;13.80;99.90;;;;;;5038679;28;20040;-62
2022/08/30 06:31:34;;;;;;;9.43;5.93;;;14.00;99.90;;;;;;5057979;28;20036;-62
2022/08/30 06:34:00;;;;;;;8.00;6.05;;;14.30;99.90;;;;;;5064714;28;20541;-62
2022/08/30 06:36:26;;;;;;;6.63;5.43;;;14.50;99.90;;;;;;5063194;28;20047;-63
2022/08/30 06:38:54;;;;;;;7.82;5.00;;;14.90;99.90;;;;;;5046776;28;20143;-63
2022/08/30 06:41:27;;;;;;;6.55;4.35;;;15.20;99.90;;;;;;5033638;28;20040;-63
2022/08/30 06:43:53;;;;;;;7.32;4.50;;;15.60;99.90;;;;;;5045646;28;20043;-63
2022/08/30 06:46:23;;;;;;;5.97;3.95;;;15.90;99.90;;;;;;5055513;28;20114;-63
2022/08/30 06:48:49;;;;;;;5.40;4.18;;;16.30;99.90;;;;;;5063354;28;20072;-63
2022/08/30 06:51:20;;;;;;;4.88;3.40;;;16.50;99.90;;;;;;5053962;28;20051;-63
2022/08/30 06:53:45;;;;;;;4.95;3.13;;;16.80;99.90;;;;;;5025324;28;20036;-63
2022/08/30 06:56:11;;;;;;;6.20;3.22;;;17.20;99.90;;;;;;5033460;28;20384;-62
2022/08/30 06:58:39;;;;;;;4.57;2.78;;;17.50;99.90;;;;;;5058337;28;20036;-63
2022/08/30 07:01:06;;;;;;;3.92;2.75;;;17.70;99.90;;;;;;5053345;28;20064;-63
2022/08/30 07:03:33;;;;;;;5.88;2.55;;;17.90;99.90;;;;;;5060680;28;20466;-63
2022/08/30 07:05:59;;;;;;;6.13;2.97;;;18.10;99.90;;;;;;5059748;28;20432;-63
2022/08/30 07:08:25;;;;;;;4.03;2.60;;;18.40;99.90;;;;;;5020032;28;20047;-63
2022/08/30 07:10:53;;;;;;;6.53;2.80;;;18.70;99.90;;;;;;5050732;28;20524;-63
2022/08/30 07:13:20;;;;;;;4.85;2.53;;;18.90;99.90;;;;;;5060353;28;20530;-63
2022/08/30 07:15:46;;;;;;;3.10;2.05;;;19.10;99.90;;;;;;5056490;28;20040;-62
2022/08/30 07:20:58;;;;;;;4.53;2.25;;;19.40;99.90;;;;;;5063326;28;20489;-63
2022/08/30 07:23:23;;;;;;;2.55;2.00;;;19.50;99.90;;;;;;5061884;28;20097;-63
2022/08/30 07:25:49;;;;;;;4.70;2.25;;;19.70;99.90;;;;;;5056976;28;20124;-63
2022/08/30 07:28:15;;;;;;;2.75;1.80;;;19.90;99.10;;;;;;5040297;28;20755;-63
2022/08/30 07:30:41;;;;;;;4.30;1.80;;;20.10;97.70;;;;;;5060159;28;20072;-63
2022/08/30 07:33:08;;;;;;;2.83;1.70;;;20.10;96.60;;;;;;5055842;28;20048;-63
2022/08/30 07:35:33;;;;;;;4.78;1.52;;;20.40;96.10;;;;;;5052847;28;20052;-64
2022/08/30 07:37:59;;;;;;;2.90;1.67;;;20.50;95.20;;;;;;5061598;28;20389;-63
2022/08/30 07:40:25;;;;;;;3.03;1.60;;;20.60;93.80;;;;;;5065604;28;20086;-64
2022/08/30 07:42:51;;;;;;;3.78;1.70;;;20.80;93.50;;;;;;5062209;28;20385;-64
2022/08/30 07:45:17;;;;;;;3.63;1.70;;;20.90;92.60;;;;;;5058957;28;20036;-63
2022/08/30 07:47:43;;;;;;;3.30;1.67;;;21.10;92.00;;;;;;5078416;28;20040;-65
2022/08/30 07:50:09;;;;;;;4.05;1.63;;;21.50;91.50;;;;;;5076278;28;20083;-64
2022/08/30 07:52:35;;;;;;;4.40;1.75;;;21.50;90.80;;;;;;5079129;28;20082;-62
2022/08/30 07:55:01;;;;;;;2.20;1.63;;;21.60;89.10;;;;;;5091372;28;20044;-63
2022/08/30 07:57:27;;;;;;;3.22;1.30;;;21.90;88.00;;;;;;5079505;28;20036;-64
2022/08/30 07:59:53;;;;;;;2.97;1.77;;;22.20;86.80;;;;;;5081605;28;20419;-63
2022/08/30 08:02:19;;;;;;;2.03;1.33;;;22.70;85.00;;;;;;5081100;28;20035;-63
2022/08/30 08:04:46;;;;;;;3.15;1.38;;;22.60;84.00;;;;;;5066131;28;20111;-64
2022/08/30 08:07:12;;;;;;;4.88;1.30;;;22.70;82.80;;;;;;5084984;28;20119;-63
2022/08/30 08:09:37;;;;;;;3.90;1.35;;;22.60;81.30;;;;;;5071758;28;20824;-64
2022/08/30 08:12:05;;;;;;;3.08;1.30;;;22.40;80.50;;;;;;5077618;28;20058;-64
2022/08/30 08:14:31;;;;;;;2.42;1.10;;;22.40;80.10;;;;;;5080528;28;20527;-64
2022/08/30 08:16:57;;;;;;;5.30;1.33;;;22.20;79.40;;;;;;5086639;28;20032;-63
2022/08/30 08:19:23;;;;;;;2.40;1.10;;;21.80;77.50;;;;;;5089966;28;20040;-63
2022/08/30 08:21:48;;;;;;;1.73;1.23;;;21.60;76.20;;;;;;5072172;28;20105;-63
2022/08/30 08:24:15;;;;;;;3.25;1.17;;;21.30;76.50;;;;;;5087183;28;20037;-64
2022/08/30 08:26:41;;;;;;;2.88;1.30;;;21.10;76.20;;;;;;5074911;28;20580;-63
2022/08/30 08:29:08;;;;;;;2.40;1.00;;;21.00;75.50;;;;;;5091776;28;20047;-63
2022/08/30 08:31:35;;;;;;;2.40;1.10;;;21.10;74.80;;;;;;5089003;28;20040;-64
2022/08/30 08:34:04;;;;;;;2.10;1.20;;;21.30;74.10;;;;;;5070280;28;20037;-64
2022/08/30 08:36:30;;;;;;;2.13;1.30;;;21.50;71.10;;;;;;5086650;28;20040;-63
2022/08/30 08:38:56;;;;;;;2.17;1.05;;;21.70;69.60;;;;;;5088906;28;20372;-63
2022/08/30 08:41:31;;;;;;;4.28;1.05;;;22.20;67.60;;;;;;5071562;28;20094;-63
2022/08/30 08:43:57;;;;;;;2.97;1.00;;;22.60;66.50;;;;;;5083883;28;20544;-64
2022/08/30 08:46:34;;;;;;;1.55;1.00;;;23.10;64.80;;;;;;5072843;28;20057;-64
2022/08/30 08:49:03;;;;;;;2.45;0.90;;;23.90;63.00;;;;;;5077757;28;20053;-64
2022/08/30 08:54:26;;;;;;;2.58;0.90;;;24.40;61.10;;;;;;5079589;28;20041;-63
2022/08/30 08:56:53;;;;;;;3.97;1.23;;;24.80;60.10;;;;;;5090064;28;20123;-65
2022/08/30 08:59:18;;;;;;;2.47;1.23;;;24.80;59.90;;;;;;5086750;28;20116;-64
2022/08/30 09:01:45;;;;;;;2.58;1.13;;;24.90;58.90;;;;;;5041185;28;20536;-64
2022/08/30 09:04:16;;;;;;;3.78;1.00;;;25.20;58.20;;;;;;5084204;28;20032;-65
2022/08/30 09:06:48;;;;;;;2.42;0.85;;;25.30;56.40;;;;;;5060672;28;20040;-63
2022/08/30 09:09:15;;;;;;;1.88;0.80;;;25.30;54.90;;;;;;5082460;28;20059;-65
2022/08/30 09:11:41;;;;;;;1.85;0.80;;;24.60;57.00;;;;;;5076955;28;20047;-64
2022/08/30 09:14:23;;;;;;;4.13;0.90;;;24.40;57.40;;;;;;5056225;28;20514;-65
2022/08/30 09:17:07;;;;;;;1.95;0.80;;;24.10;56.80;;;;;;5056148;28;20123;-66
2022/08/30 09:19:40;;;;;;;1.00;0.60;;;24.40;57.00;;;;;;5084016;28;20032;-65
2022/08/30 09:22:37;;;;;;;2.20;1.00;;;24.90;56.50;;;;;;5081819;28;20040;-65
2022/08/30 09:25:07;;;;;;;1.20;0.77;;;25.60;54.90;;;;;;5081476;28;20472;-65
2022/08/30 09:27:46;;;;;;;2.05;0.70;;;25.80;55.40;;;;;;5090146;28;20040;-65
2022/08/30 09:30:17;;;;;;;3.10;0.60;;;25.80;54.80;;;;;;5067379;28;20043;-65
2022/08/30 09:32:53;;;;;;;1.95;0.80;;;25.30;54.50;;;;;;5058379;28;20056;-66
2022/08/30 09:35:36;;;;;;;2.97;0.80;;;25.20;54.40;;;;;;5088261;28;20040;-65
2022/08/30 09:38:11;;;;;;;1.08;0.85;;;24.60;55.20;;;;;;5075641;28;20368;-64
2022/08/30 09:40:51;;;;;;;1.95;0.90;;;24.30;54.30;;;;;;5080689;28;20028;-66
2022/08/30 09:43:17;;;;;;;4.68;0.93;;;23.60;54.40;;;;;;5084152;28;20165;-65
2022/08/30 09:45:48;;;;;;;2.70;0.80;;;23.40;56.90;;;;;;5080306;28;20127;-66
2022/08/30 09:48:22;;;;;;;2.00;0.80;;;23.30;57.40;;;;;;5078294;28;20634;-65
2022/08/30 09:50:57;;;;;;;2.47;1.10;;;23.10;58.00;;;;;;5083273;28;20028;-65
2022/08/30 09:53:33;;;;;;;1.20;0.65;;;23.10;58.30;;;;;;5083733;28;20047;-65
2022/08/30 09:56:27;;;;;;;3.38;0.90;;;23.30;58.20;;;;;;5054434;28;20831;-65
2022/08/30 09:59:23;;;;;;;2.25;1.20;;;23.30;57.40;;;;;;5076147;28;20032;-63
2022/08/30 10:02:01;;;;;;;2.92;1.08;;;23.00;56.90;;;;;;5082711;28;20078;-65
2022/08/30 10:04:51;;;;;;;1.52;0.98;;;22.90;57.80;;;;;;5091164;28;20775;-64
2022/08/30 10:07:30;;;;;;;1.48;0.80;;;22.90;57.80;;;;;;5072743;28;20093;-63
2022/08/30 10:10:20;;;;;;;2.95;0.90;;;22.80;58.30;;;;;;5091029;28;20396;-64
2022/08/30 10:12:48;;;;;;;;;;;22.50;58.30;;;;;;5093321;28;20040;-64
2022/08/30 10:15:20;;;;;;;2.13;0.63;;;22.40;59.10;;;;;;5082937;28;19924;-64
2022/08/30 10:17:52;;;;;;;3.65;1.10;;;22.40;59.00;;;;;;5086639;28;20035;-64
2022/08/30 10:20:25;;;;;;;0.95;0.60;;;22.70;59.20;;;;;;5090684;28;20036;-64
2022/08/30 10:23:08;;;;;;;3.35;0.80;;;22.40;58.90;;;;;;5088228;28;20070;-64
2022/08/30 10:25:48;;;;;;;2.00;0.98;;;22.40;58.90;;;;;;5056294;28;20036;-64
2022/08/30 10:28:17;;;;;;;;;;;22.80;58.30;;;;;;5093520;28;20389;-64
2022/08/30 10:30:57;;;;;;;1.20;0.75;;;22.80;58.20;;;;;;5075722;28;19939;-64
2022/08/30 10:33:39;;;;;;;1.95;1.05;;;22.80;56.80;;;;;;5071798;28;20048;-63
2022/08/30 10:36:10;;;;;;;1.80;0.82;;;22.80;57.00;;;;;;5070655;28;20481;-64
2022/08/30 10:38:38;;;;;;;2.30;0.70;;;22.70;58.20;;;;;;5083891;28;20033;-66
2022/08/30 10:41:35;;;;;;;2.20;1.00;;;22.70;56.60;;;;;;5074118;28;20036;-64
2022/08/30 10:44:22;;;;;;;2.72;0.80;;;22.50;57.50;;;;;;5072597;28;20127;-63
2022/08/30 10:47:15;;;;;;;1.40;0.80;;;22.30;57.30;;;;;;5076098;28;20048;-64
2022/08/30 10:49:45;;;;;;;3.17;1.13;;;22.20;57.50;;;;;;5079327;28;21199;-64
2022/08/30 10:52:13;;;;;;;2.42;1.00;;;22.30;57.90;;;;;;5087246;28;20119;-64
2022/08/30 10:54:46;;;;;;;2.85;1.00;;;22.40;57.90;;;;;;5085739;28;20051;-65
2022/08/30 10:57:11;;;;;;;2.75;1.13;;;22.20;57.10;;;;;;5087302;28;20488;-63
2022/08/30 10:59:44;;;;;;;1.73;0.88;;;22.20;56.80;;;;;;5082805;28;20032;-64
2022/08/30 11:02:27;;;;;;;1.45;1.00;;;22.10;56.90;;;;;;5081053;28;20138;-63
2022/08/30 11:05:05;;;;;;;3.88;1.10;;;21.90;57.50;;;;;;5068039;28;20052;-64
2022/08/30 11:07:41;;;;;;;2.97;1.00;;;21.90;57.70;;;;;;5091316;28;20652;-63
2022/08/30 11:10:25;;;;;;;5.20;1.20;;;21.70;58.00;;;;;;5081797;28;20040;-64
2022/08/30 11:13:11;;;;;;;4.15;1.10;;;21.80;58.80;;;;;;5086860;28;20048;-65
2022/08/30 11:16:01;;;;;;;2.95;1.05;;;21.80;59.10;;;;;;5064883;28;20044;-64
2022/08/30 11:18:32;;;;;;;2.30;0.95;;;21.60;59.40;;;;;;5071969;28;20434;-63
2022/08/30 11:21:19;;;;;;;2.28;0.80;;;21.70;59.90;;;;;;5070015;28;20142;-64
2022/08/30 11:24:10;;;;;;;1.52;0.80;;;21.90;60.90;;;;;;5058636;28;20496;-65
2022/08/30 11:26:48;;;;;;;2.08;0.77;;;22.20;60.70;;;;;;5066734;28;20144;-64
2022/08/30 11:29:26;;;;;;;1.95;1.10;;;22.70;60.20;;;;;;5074502;28;20037;-64
2022/08/30 11:31:53;;;;;;;1.80;1.10;;;23.10;59.00;;;;;;5087669;28;20036;-64
2022/08/30 11:34:53;;;;;;;1.48;0.88;;;23.20;58.90;;;;;;5082470;28;20032;-64
2022/08/30 11:37:41;;;;;;;2.50;1.05;;;23.20;57.50;;;;;;5055158;28;20565;-65
2022/08/30 11:40:19;;;;;;;3.50;0.80;;;22.80;57.50;;;;;;5070934;28;20059;-64
2022/08/30 11:42:49;;;;;;;1.88;0.98;;;22.80;58.70;;;;;;5059003;28;20044;-64
2022/08/30 11:45:21;;;;;;;0.90;0.60;;;22.80;58.80;;;;;;5077192;28;20036;-67
2022/08/30 11:48:04;;;;;;;0.93;0.70;;;23.00;57.80;;;;;;5079091;28;20105;-65
2022/08/30 11:50:51;;;;;;;1.17;0.80;;;22.60;58.40;;;;;;5069376;28;20396;-62
2022/08/30 11:53:35;;;;;;;1.85;0.85;;;22.30;58.30;;;;;;5070691;28;20064;-64
2022/08/30 11:56:26;;;;;;;2.08;0.70;;;22.20;58.60;;;;;;5081681;28;20073;-64
2022/08/30 11:59:16;;;;;;;4.05;1.00;;;22.10;59.70;;;;;;5082142;28;20115;-64
2022/08/30 12:01:43;;;;;;;2.40;0.80;;;22.30;60.40;;;;;;5061439;28;20036;-65
2022/08/30 12:04:15;;;;;;;0.80;0.70;;;22.30;59.70;;;;;;5089496;28;20040;-64
2022/08/30 12:06:43;;;;;;;2.85;0.70;;;22.50;58.80;;;;;;5081469;28;20203;-65
2022/08/30 12:09:31;;;;;;;3.38;1.00;;;22.70;58.20;;;;;;5092118;28;20472;-65
2022/08/30 12:12:06;;;;;;;3.33;1.02;;;23.10;57.90;;;;;;5072808;28;20044;-65
2022/08/30 12:14:38;;;;;;;6.70;1.33;;;23.30;57.90;;;;;;5090374;28;20050;-64
2022/08/30 12:20:25;;;;;;;1.30;0.68;;;23.50;57.60;;;;;;5071561;28;20099;-64
2022/08/30 12:22:52;;;;;;;1.05;0.65;;;23.60;55.40;;;;;;5062283;28;20557;-66
2022/08/30 12:25:26;;;;;;;1.88;1.00;;;23.40;56.50;;;;;;5073792;28;20036;-65
2022/08/30 12:28:09;;;;;;;3.08;0.80;;;23.40;56.00;;;;;;5091492;28;20103;-65
2022/08/30 12:30:38;;;;;;;2.13;0.80;;;23.30;56.60;;;;;;5094213;28;20051;-65
2022/08/30 12:33:04;;;;;;;1.77;0.80;;;23.50;55.90;;;;;;5078231;28;20039;-64
2022/08/30 12:35:30;;;;;;;0.98;0.70;;;23.70;56.20;;;;;;5066842;28;20491;-67
2022/08/30 12:38:04;;;;;;;0.77;0.50;;;23.90;55.30;;;;;;5065905;28;20518;-67
2022/08/30 12:40:33;;;;;;;1.10;0.57;;;23.70;55.60;;;;;;5056388;28;20059;-65
2022/08/30 12:43:04;;;;;;;1.55;0.82;;;23.90;55.40;;;;;;5075442;28;20400;-65
2022/08/30 12:45:40;;;;;;;2.15;0.85;;;24.00;55.00;;;;;;5074228;28;20397;-65
2022/08/30 12:48:13;;;;;;;1.98;0.50;;;24.20;55.10;;;;;;5087625;28;20507;-65
2022/08/30 12:50:52;;;;;;;2.20;0.80;;;24.30;54.10;;;;;;5072758;28;20146;-65
2022/08/30 12:53:28;;;;;;;1.58;0.70;;;24.60;53.70;;;;;;5079038;28;20036;-66
2022/08/30 12:56:03;;;;;;;1.85;1.00;;;25.40;53.00;;;;;;5076053;28;20083;-66
2022/08/30 12:59:00;;;;;;;1.25;0.70;;;27.60;50.80;;;;;;5089520;28;20032;-66
2022/08/30 13:01:34;;;;;;;1.40;0.90;;;28.50;48.50;;;;;;5080124;28;20074;-66
2022/08/30 13:04:22;;;;;;;1.50;0.70;;;28.00;47.70;;;;;;5084428;28;20032;-65
2022/08/30 13:06:49;;;;;;;1.33;0.60;;;30.30;46.60;;;;;;5077241;28;20044;-66
2022/08/30 13:09:26;;;;;;;0.63;0.55;;;32.30;43.60;;;;;;5087150;28;20840;-66